Weather at Seldom Scene Airport

Public forecast

Using degrees Fahrenheit for public forecast. Weather courtesy of forecast.io.

Closest aviation weather report (METAR) to Seldom Scene Airport

Closest report is Capital City Airport, 5.3 nm (9.8 km) NNW. Retrieved 2021/06/23 01:53 UTC (26 minutes ago):

KFFT 230153Z AUTO 00000KT 10SM CLR 14/10 A3007 RMK AO2 SLP179 T01440100

Closest aviation forecast (TAF) to Seldom Scene Airport

Forecast is more than 6 hours old.

Closest forecast is Blue Grass Airport, 12.3 nm (22.7 km) ESE. Retrieved 2021/06/22 18:22 UTC (8 hours ago):

TAF KLEX 221720Z 2218/2318 35010KT P6SM FEW060 FM230000 VRB03KT P6SM SKC FM231300 11011KT P6SM FEW200